Accueil
METAR-TAF:

METAR-TAF

Aéroports :

Aéroport de Londres-City

Londres, Angleterre

latitude: 51-30N, longitude: 000-03E, altitude: 5 m

Observation

Le bulletin a été fait il y a 36 minutes, à 01:50 UTC
Vent 6 kt de sud-ouest, variant entre sud et ouest
Température 19°C
Humidité 78%
Pression 1020 hPa
Visibilité 10 km ou plus
Ciel couvert à une hauteur de 2400 ft

METAR: EGLC 190150Z AUTO 23006KT 190V280 9999 OVC024 19/15 Q1020

Heure: 03:26 (02:26 UTC)

Prévision

Le bulletin a été fait il y a 18 heures et 26 minutes, à 08:00 UTC
Prévision valable du 18 à 09 UTC au 18 à 12 UTC
Vent 9 kt de ouest/sud-ouest
Visibilité 10 km ou plus
Nuages fragmentés à une hauteur de 3500 ft

TAF: EGLC 180800Z 1809/1812 24009KT 9999 BKN035

Observations et prévisions météorologiques de plus de 4000 aéroports (messages METAR et TAF).

Les stations disponibles sont représentées par des disques jaunes et rouges sur la carte.

Passer la souris dessus pour voir le nom de la station.

Cliquer dessus pour voir les observations et prévisions météorologiques.

Pour changer de carte: cliquez sur les boutons verts avec une croix noire pour zoomer, sur le bouton vert avec un tiret pour effectuer un zoom arrière, ou sur les flèches vertes pour les cartes adjacentes.


METAR-TAF: